Time;durP1;ratioP1;P1;durP2;ratioP2;P2;SDS_P1;SDS_P2;PMS_P1;PMS_P2;Temp;Humidity;BMP_temperature;BMP_pressure;BME280_temperature;BME280_humidity;BME280_pressure;Samples;Min_cycle;Max_cycle;Signal;HPM_P1;HPM_P2
2023/07/22 00:01:28;;;;;;;;;;;11.50;96.00;;;;;;5115089;27;19913;-66
2023/07/22 00:03:55;;;;;;;;;;;11.60;96.00;;;;;;5114293;28;20399;-69
2023/07/22 00:06:22;;;;;;;;;;;11.70;96.00;;;;;;5107300;28;20322;-68
2023/07/22 00:08:50;;;;;;;;;;;11.80;95.80;;;;;;5108842;28;19912;-68
2023/07/22 00:11:16;;;;;;;;;;;11.90;95.50;;;;;;5114688;28;19930;-67
2023/07/22 00:13:43;;;;;;;;;;;12.00;95.30;;;;;;5114981;28;19965;-68
2023/07/22 00:16:10;;;;;;;;;;;12.00;95.30;;;;;;5114801;28;19919;-69
2023/07/22 00:18:37;;;;;;;;;;;12.10;95.00;;;;;;5114301;28;20057;-68
2023/07/22 00:21:04;;;;;;;;;;;12.20;94.80;;;;;;5114533;27;19919;-70
2023/07/22 00:23:30;;;;;;;;;;;12.30;94.90;;;;;;5114471;28;19915;-67
2023/07/22 00:25:57;;;;;;;;;;;12.40;95.00;;;;;;5114479;28;20387;-68
2023/07/22 00:28:23;;;;;;;;;;;12.50;95.10;;;;;;5114327;28;19919;-67
2023/07/22 00:30:53;;;;;;;;;;;12.50;95.00;;;;;;5114187;28;19946;-67
2023/07/22 00:33:20;;;;;;;;;;;12.60;94.70;;;;;;5113465;28;19994;-66
2023/07/22 00:35:53;;;;;;;;;;;12.80;94.60;;;;;;5113820;28;19973;-68
2023/07/22 00:38:20;;;;;;;;;;;12.80;94.60;;;;;;5133964;27;20364;-67
2023/07/22 00:40:47;;;;;;;;;;;12.90;94.60;;;;;;5132218;27;19998;-65
2023/07/22 00:43:14;;;;;;;;;;;13.00;94.80;;;;;;5112933;28;19924;-67
2023/07/22 00:45:40;;;;;;;;;;;13.00;94.90;;;;;;5113981;28;19988;-68
2023/07/22 00:48:08;;;;;;;;;;;13.10;94.80;;;;;;5113971;28;19995;-66
2023/07/22 00:50:35;;;;;;;;;;;13.20;94.50;;;;;;5113617;28;20364;-65
2023/07/22 00:53:05;;;;;;;;;;;13.20;94.30;;;;;;5111960;28;20205;-68
2023/07/22 00:55:33;;;;;;;;;;;13.30;94.40;;;;;;5114125;28;19908;-67
2023/07/22 00:58:00;;;;;;;;;;;13.40;94.50;;;;;;5114116;28;19919;-65
2023/07/22 01:00:27;;;;;;;;;;;13.50;94.60;;;;;;5113699;28;19908;-68
2023/07/22 01:02:53;;;;;;;;;;;13.60;94.50;;;;;;5113080;28;19918;-66
2023/07/22 01:05:20;;;;;;;;;;;13.70;94.50;;;;;;5113781;28;19961;-67
2023/07/22 01:07:47;;;;;;;;;;;13.70;94.30;;;;;;5113767;28;19912;-66
2023/07/22 01:10:14;;;;;;;;;;;13.80;94.20;;;;;;5114008;28;20008;-67
2023/07/22 01:12:41;;;;;;;;;;;13.90;94.40;;;;;;5113633;28;19958;-65
2023/07/22 01:15:08;;;;;;;;;;;13.90;94.40;;;;;;5113520;28;20360;-68
2023/07/22 01:17:36;;;;;;;;;;;14.00;94.30;;;;;;5113475;27;19934;-67
2023/07/22 01:20:03;;;;;;;;;;;14.00;94.00;;;;;;5113306;28;19915;-67
2023/07/22 01:22:30;;;;;;;;;;;14.20;94.20;;;;;;5113045;28;20010;-67
2023/07/22 01:24:57;;;;;;;;;;;14.20;94.10;;;;;;5113664;28;19911;-68
2023/07/22 01:27:24;;;;;;;;;;;14.40;94.00;;;;;;5113595;27;19939;-67
2023/07/22 01:29:51;;;;;;;;;;;14.40;93.90;;;;;;5113437;28;19976;-68
2023/07/22 01:32:19;;;;;;;;;;;14.50;94.10;;;;;;5106362;27;20293;-67
2023/07/22 01:34:46;;;;;;;;;;;14.70;94.20;;;;;;5092480;28;19908;-67
2023/07/22 01:37:13;;;;;;;;;;;14.70;93.80;;;;;;5100508;28;20345;-65
2023/07/22 01:39:39;;;;;;;;;;;14.80;94.00;;;;;;5113070;28;19960;-66
2023/07/22 01:42:06;;;;;;;;;;;14.90;94.00;;;;;;5108812;27;19976;-66
2023/07/22 01:44:33;;;;;;;;;;;14.90;94.00;;;;;;5112154;28;19933;-66
2023/07/22 01:47:02;;;;;;;;;;;15.10;94.20;;;;;;5112776;28;19912;-67
2023/07/22 01:49:29;;;;;;;;;;;15.20;93.90;;;;;;5112880;28;20280;-67
2023/07/22 01:51:56;;;;;;;;;;;15.30;94.10;;;;;;5111751;28;19927;-67
2023/07/22 01:54:22;;;;;;;;;;;15.40;93.70;;;;;;5112262;28;20276;-68
2023/07/22 01:56:49;;;;;;;;;;;15.50;93.80;;;;;;5112923;28;19920;-69
2023/07/22 01:59:15;;;;;;;;;;;15.70;94.10;;;;;;5112747;28;20293;-65
2023/07/22 02:01:42;;;;;;;;;;;15.80;93.60;;;;;;5111565;28;20018;-66
2023/07/22 02:04:10;;;;;;;;;;;15.90;93.50;;;;;;5091634;28;19912;-66
2023/07/22 02:06:37;;;;;;;;;;;16.00;93.50;;;;;;5073681;28;19912;-66
2023/07/22 02:09:08;;;;;;;;;;;16.20;93.20;;;;;;5092635;28;20324;-66
2023/07/22 02:11:37;;;;;;;;;;;16.30;92.80;;;;;;5092390;28;19916;-66
2023/07/22 02:14:06;;;;;;;;;;;16.30;92.90;;;;;;5092361;28;19912;-65
2023/07/22 02:16:34;;;;;;;;;;;16.30;93.10;;;;;;5092042;28;20007;-66
2023/07/22 02:19:02;;;;;;;;;;;16.40;93.30;;;;;;5092146;28;19908;-68
2023/07/22 02:21:28;;;;;;;;;;;16.40;93.20;;;;;;5092470;28;19991;-64
2023/07/22 02:23:55;;;;;;;;;;;16.60;93.20;;;;;;5091685;28;19908;-65
2023/07/22 02:26:22;;;;;;;;;;;16.50;92.90;;;;;;5091880;28;19908;-63
2023/07/22 02:28:48;;;;;;;;;;;16.60;92.80;;;;;;5095535;28;19965;-66
2023/07/22 02:31:15;;;;;;;;;;;16.50;92.70;;;;;;5112464;28;19972;-64
2023/07/22 02:33:42;;;;;;;;;;;16.50;92.80;;;;;;5111186;28;19972;-66
2023/07/22 02:36:08;;;;;;;;;;;16.50;93.20;;;;;;5110338;28;19989;-66
2023/07/22 02:38:35;;;;;;;;;;;16.60;92.80;;;;;;5110431;28;19908;-64
2023/07/22 02:41:03;;;;;;;;;;;16.60;92.40;;;;;;5111190;28;19908;-64
2023/07/22 02:43:29;;;;;;;;;;;16.60;92.40;;;;;;5111018;28;20401;-65
2023/07/22 02:45:56;;;;;;;;;;;16.70;92.00;;;;;;5111260;28;19908;-63
2023/07/22 02:48:22;;;;;;;;;;;16.70;92.40;;;;;;5112516;28;20271;-65
2023/07/22 02:50:49;;;;;;;;;;;16.90;92.20;;;;;;5112723;28;19916;-65
2023/07/22 02:53:16;;;;;;;;;;;16.90;92.10;;;;;;5112809;28;19907;-63
2023/07/22 02:55:43;;;;;;;;;;;17.20;92.70;;;;;;5112809;28;20421;-65
2023/07/22 02:58:09;;;;;;;;;;;17.60;91.70;;;;;;5094355;28;19913;-65
2023/07/22 03:00:36;;;;;;;;;;;18.20;90.90;;;;;;5092025;28;19908;-65
2023/07/22 03:03:04;;;;;;;;;;;18.60;90.80;;;;;;5095059;28;19908;-67
2023/07/22 03:05:32;;;;;;;;;;;18.90;90.20;;;;;;5095429;28;19915;-66
2023/07/22 03:07:59;;;;;;;;;;;18.90;90.00;;;;;;5095839;28;19916;-65
2023/07/22 03:10:26;;;;;;;;;;;19.30;89.80;;;;;;5095543;28;19913;-68
2023/07/22 03:12:55;;;;;;;;;;;19.90;88.60;;;;;;5095331;28;19991;-67
2023/07/22 03:15:25;;;;;;;;;;;21.10;87.00;;;;;;5095337;28;20481;-65
2023/07/22 03:17:52;;;;;;;;;;;21.70;84.00;;;;;;5095415;28;19987;-67
2023/07/22 03:20:19;;;;;;;;;;;22.30;82.20;;;;;;5100912;28;19912;-67
2023/07/22 03:22:46;;;;;;;;;;;22.70;79.90;;;;;;5114025;28;19916;-63
2023/07/22 03:25:13;;;;;;;;;;;22.80;79.80;;;;;;5102539;28;19916;-64
2023/07/22 03:27:41;;;;;;;;;;;22.70;79.50;;;;;;5100960;28;20002;-66
2023/07/22 03:30:08;;;;;;;;;;;22.30;80.20;;;;;;5114910;28;20406;-65
2023/07/22 03:32:35;;;;;;;;;;;21.70;80.40;;;;;;5114194;28;19912;-64
2023/07/22 03:35:02;;;;;;;;;;;21.10;82.20;;;;;;5113643;28;19908;-67
2023/07/22 03:37:29;;;;;;;;;;;20.70;83.30;;;;;;5113447;28;19968;-64
2023/07/22 03:39:56;;;;;;;;;;;21.10;83.40;;;;;;5114204;28;19907;-67
2023/07/22 03:42:22;;;;;;;;;;;22.50;81.50;;;;;;5113761;28;19915;-66
2023/07/22 03:44:49;;;;;;;;;;;24.00;78.20;;;;;;5114291;28;19916;-65
2023/07/22 03:47:15;;;;;;;;;;;25.10;74.80;;;;;;5115574;28;19908;-66
2023/07/22 03:49:42;;;;;;;;;;;26.30;73.20;;;;;;5115616;28;19919;-67
2023/07/22 03:52:09;;;;;;;;;;;27.50;70.50;;;;;;5095302;28;19920;-66
2023/07/22 03:54:35;;;;;;;;;;;27.70;68.20;;;;;;5096881;28;19919;-65
2023/07/22 03:57:02;;;;;;;;;;;27.40;68.10;;;;;;5094902;28;19908;-66
2023/07/22 03:59:29;;;;;;;;;;;27.60;66.90;;;;;;5095298;28;19908;-66
2023/07/22 04:01:55;;;;;;;;;;;27.10;67.20;;;;;;5095290;28;19908;-67
2023/07/22 04:04:22;;;;;;;;;;;26.50;67.70;;;;;;5094950;28;19908;-64
2023/07/22 04:06:48;;;;;;;;;;;25.80;69.20;;;;;;5110979;28;20388;-64
2023/07/22 04:09:15;;;;;;;;;;;24.90;70.00;;;;;;5093582;28;19914;-67
2023/07/22 04:11:41;;;;;;;;;;;23.90;71.40;;;;;;5109292;28;19929;-66
2023/07/22 04:14:08;;;;;;;;;;;22.60;74.30;;;;;;5112647;28;20034;-65
2023/07/22 04:16:35;;;;;;;;;;;21.80;76.20;;;;;;5114784;28;19957;-63
2023/07/22 04:19:01;;;;;;;;;;;21.20;77.90;;;;;;5114099;28;19961;-64
2023/07/22 04:21:28;;;;;;;;;;;20.90;78.50;;;;;;5111675;28;19907;-66
2023/07/22 04:23:55;;;;;;;;;;;20.70;79.20;;;;;;5114623;28;19961;-64
2023/07/22 04:26:21;;;;;;;;;;;20.40;79.80;;;;;;5114373;28;20261;-66
2023/07/22 04:28:48;;;;;;;;;;;19.90;81.40;;;;;;5114395;28;19930;-68
2023/07/22 04:31:14;;;;;;;;;;;19.60;82.10;;;;;;5112315;28;19922;-64
2023/07/22 04:33:41;;;;;;;;;;;19.00;83.80;;;;;;5114154;28;19964;-66
2023/07/22 04:36:08;;;;;;;;;;;18.70;85.40;;;;;;5114255;28;19908;-67
2023/07/22 04:38:35;;;;;;;;;;;18.60;86.20;;;;;;5113483;28;19963;-67
2023/07/22 04:41:03;;;;;;;;;;;18.50;85.40;;;;;;5112510;28;19908;-68
2023/07/22 04:43:30;;;;;;;;;;;18.30;86.00;;;;;;5113971;28;19927;-67
2023/07/22 04:45:56;;;;;;;;;;;18.10;86.90;;;;;;5113826;28;19960;-67
2023/07/22 04:48:23;;;;;;;;;;;18.10;87.40;;;;;;5100117;28;19920;-68
2023/07/22 04:50:50;;;;;;;;;;;18.10;87.50;;;;;;5098346;28;19920;-68
2023/07/22 04:53:19;;;;;;;;;;;17.90;87.50;;;;;;5113675;28;19924;-66
2023/07/22 04:55:46;;;;;;;;;;;17.60;88.40;;;;;;5113805;28;19908;-67
2023/07/22 04:58:13;;;;;;;;;;;17.60;88.70;;;;;;5113316;28;19907;-67
2023/07/22 05:00:39;;;;;;;;;;;17.60;88.80;;;;;;5101694;28;20389;-66
2023/07/22 05:03:06;;;;;;;;;;;17.50;89.40;;;;;;5113230;28;19908;-66
2023/07/22 05:05:33;;;;;;;;;;;17.50;89.60;;;;;;5112993;28;19912;-68
2023/07/22 05:07:59;;;;;;;;;;;17.50;90.00;;;;;;5112715;28;19912;-66
2023/07/22 05:10:28;;;;;;;;;;;17.50;90.00;;;;;;5112235;28;19995;-66
2023/07/22 05:12:57;;;;;;;;;;;17.60;89.40;;;;;;5112997;28;19969;-63
2023/07/22 05:15:23;;;;;;;;;;;17.70;89.20;;;;;;5105607;28;19912;-66
2023/07/22 05:17:50;;;;;;;;;;;17.60;89.10;;;;;;5092570;28;20287;-66
2023/07/22 05:20:17;;;;;;;;;;;17.60;89.10;;;;;;5108077;28;19930;-67
2023/07/22 05:22:43;;;;;;;;;;;17.70;89.10;;;;;;5093006;28;19908;-67
2023/07/22 05:25:10;;;;;;;;;;;17.70;88.90;;;;;;5095199;28;19968;-64
2023/07/22 05:27:37;;;;;;;;;;;17.50;88.30;;;;;;5108800;28;19934;-65
2023/07/22 05:30:03;;;;;;;;;;;17.40;89.30;;;;;;5111393;28;19908;-65
2023/07/22 05:32:30;;;;;;;;;;;17.10;89.30;;;;;;5111995;28;19951;-64
2023/07/22 05:34:57;;;;;;;;;;;17.10;90.10;;;;;;5105588;28;20285;-63
2023/07/22 05:37:26;;;;;;;;;;;17.30;90.90;;;;;;5104686;28;20002;-63
2023/07/22 05:39:53;;;;;;;;;;;17.50;90.80;;;;;;5111130;28;20006;-67
2023/07/22 05:42:20;;;;;;;;;;;17.80;90.60;;;;;;5111202;28;19907;-67
2023/07/22 05:44:46;;;;;;;;;;;18.00;89.90;;;;;;5111448;28;19930;-64
2023/07/22 05:47:13;;;;;;;;;;;18.30;90.40;;;;;;5097793;28;20406;-67
2023/07/22 05:49:40;;;;;;;;;;;18.40;88.50;;;;;;5098677;28;19908;-66
2023/07/22 05:52:07;;;;;;;;;;;18.70;87.80;;;;;;5073549;28;20382;-66
2023/07/22 05:54:34;;;;;;;;;;;18.70;87.80;;;;;;5091611;28;19912;-65
2023/07/22 05:57:01;;;;;;;;;;;18.80;88.80;;;;;;5091966;28;19912;-66
2023/07/22 05:59:27;;;;;;;;;;;18.90;88.20;;;;;;5108685;28;19904;-66
2023/07/22 06:01:54;;;;;;;;;;;19.00;87.60;;;;;;5110234;28;19923;-64
2023/07/22 06:04:20;;;;;;;;;;;19.40;86.70;;;;;;5108786;28;19912;-64
2023/07/22 06:06:47;;;;;;;;;;;19.90;85.70;;;;;;5109992;28;20031;-64
2023/07/22 06:09:14;;;;;;;;;;;20.40;84.00;;;;;;5110877;28;19922;-65
2023/07/22 06:11:41;;;;;;;;;;;20.60;83.60;;;;;;5109474;28;20342;-66
2023/07/22 06:14:08;;;;;;;;;;;20.70;83.70;;;;;;5109040;28;19912;-68
2023/07/22 06:16:34;;;;;;;;;;;20.90;82.90;;;;;;5103384;28;20266;-68
2023/07/22 06:19:01;;;;;;;;;;;20.80;84.70;;;;;;5105621;28;19968;-66
2023/07/22 06:21:27;;;;;;;;;;;21.20;83.50;;;;;;5095516;28;19916;-67
2023/07/22 06:23:54;;;;;;;;;;;21.40;81.70;;;;;;5109122;28;20360;-66
2023/07/22 06:26:21;;;;;;;;;;;20.90;82.60;;;;;;5086583;28;19908;-66
2023/07/22 06:28:48;;;;;;;;;;;20.30;84.30;;;;;;5095071;28;19943;-66
2023/07/22 06:31:15;;;;;;;;;;;19.80;85.70;;;;;;5111419;28;20018;-66
2023/07/22 06:33:42;;;;;;;;;;;19.10;87.00;;;;;;5111803;28;19912;-64
2023/07/22 06:36:09;;;;;;;;;;;18.50;88.70;;;;;;5106476;28;19915;-66
2023/07/22 06:38:35;;;;;;;;;;;18.00;89.80;;;;;;5102995;28;19912;-66
2023/07/22 06:41:02;;;;;;;;;;;17.50;90.50;;;;;;5116304;28;19951;-64
2023/07/22 06:43:29;;;;;;;;;;;17.10;91.20;;;;;;5115569;28;19920;-68
2023/07/22 06:45:56;;;;;;;;;;;16.80;91.70;;;;;;5115853;28;19908;-67
2023/07/22 06:48:23;;;;;;;;;;;16.40;92.20;;;;;;5116308;28;19951;-66
2023/07/22 06:50:49;;;;;;;;;;;16.20;92.80;;;;;;5115953;28;19915;-63
2023/07/22 06:53:16;;;;;;;;;;;16.10;93.20;;;;;;5113104;28;19915;-65
2023/07/22 06:55:50;;;;;;;;;;;15.80;93.50;;;;;;5114992;28;19961;-62
2023/07/22 06:58:16;;;;;;;;;;;15.60;93.80;;;;;;5114812;28;20268;-64
2023/07/22 07:00:43;;;;;;;;;;;15.50;94.30;;;;;;5113948;28;19908;-66
2023/07/22 07:03:10;;;;;;;;;;;15.30;94.60;;;;;;5113171;28;19998;-64
2023/07/22 07:05:36;;;;;;;;;;;15.20;95.20;;;;;;5113103;28;20022;-65
2023/07/22 07:08:03;;;;;;;;;;;15.10;95.50;;;;;;5112019;28;19911;-65
2023/07/22 07:10:30;;;;;;;;;;;15.00;95.90;;;;;;5113898;28;20341;-66
2023/07/22 07:12:58;;;;;;;;;;;14.90;96.50;;;;;;5114527;28;19912;-64
2023/07/22 07:15:24;;;;;;;;;;;14.80;96.80;;;;;;5113824;28;20296;-67
2023/07/22 07:17:51;;;;;;;;;;;14.70;97.20;;;;;;5114392;28;19908;-67
2023/07/22 07:20:18;;;;;;;;;;;14.60;97.40;;;;;;5114357;28;20002;-66
2023/07/22 07:22:44;;;;;;;;;;;14.50;97.70;;;;;;5114539;28;20264;-65
2023/07/22 07:25:11;;;;;;;;;;;14.40;98.10;;;;;;5114520;28;19908;-64
2023/07/22 07:27:38;;;;;;;;;;;14.40;98.50;;;;;;5113230;28;19908;-66
2023/07/22 07:30:05;;;;;;;;;;;14.20;98.90;;;;;;5095243;28;19916;-65
2023/07/22 07:32:32;;;;;;;;;;;14.20;99.20;;;;;;5095658;28;19919;-65
2023/07/22 07:34:58;;;;;;;;;;;14.10;99.40;;;;;;5111923;28;19924;-64
2023/07/22 07:37:25;;;;;;;;;;;14.00;99.90;;;;;;5115832;28;19999;-64
2023/07/22 07:39:52;;;;;;;;;;;14.00;99.90;;;;;;5115990;28;20016;-66
2023/07/22 07:42:18;;;;;;;;;;;13.90;99.90;;;;;;5115950;28;20380;-66
2023/07/22 07:44:45;;;;;;;;;;;13.90;99.90;;;;;;5115931;28;19908;-66
2023/07/22 07:47:11;;;;;;;;;;;13.80;99.90;;;;;;5115925;28;19908;-65
2023/07/22 07:49:40;;;;;;;;;;;13.80;99.90;;;;;;5115825;28;19919;-68
2023/07/22 07:52:08;;;;;;;;;;;13.70;99.90;;;;;;5115193;28;19951;-67
2023/07/22 07:54:36;;;;;;;;;;;13.60;99.90;;;;;;5115082;28;19911;-65
2023/07/22 07:57:03;;;;;;;;;;;13.60;99.90;;;;;;5096700;28;19951;-65
2023/07/22 07:59:33;;;;;;;;;;;13.50;99.90;;;;;;5115151;28;19908;-66
2023/07/22 08:02:01;;;;;;;;;;;13.40;99.90;;;;;;5103917;28;19909;-67
2023/07/22 08:04:28;;;;;;;;;;;13.40;99.90;;;;;;5094652;28;19935;-67
2023/07/22 08:06:55;;;;;;;;;;;13.30;99.90;;;;;;5094821;28;19915;-68
2023/07/22 08:09:22;;;;;;;;;;;13.30;99.90;;;;;;5076683;28;20289;-65
2023/07/22 08:11:49;;;;;;;;;;;13.30;99.90;;;;;;5094440;28;20334;-67
2023/07/22 08:14:17;;;;;;;;;;;13.20;99.90;;;;;;5094689;28;20361;-62
2023/07/22 08:16:45;;;;;;;;;;;13.10;99.90;;;;;;5077177;28;19919;-66
2023/07/22 08:19:12;;;;;;;;;;;13.10;99.90;;;;;;5095447;28;19908;-67
2023/07/22 08:21:38;;;;;;;;;;;13.10;99.90;;;;;;5094605;28;19951;-65
2023/07/22 08:24:05;;;;;;;;;;;13.10;99.90;;;;;;5094469;28;19909;-68
2023/07/22 08:26:32;;;;;;;;;;;13.10;99.90;;;;;;5107402;28;19908;-65
2023/07/22 08:28:58;;;;;;;;;;;13.00;99.90;;;;;;5095276;28;19912;-63
2023/07/22 08:31:25;;;;;;;;;;;13.00;99.90;;;;;;5108026;27;20368;-67
2023/07/22 08:33:52;;;;;;;;;;;12.90;99.90;;;;;;5114347;28;19918;-64
2023/07/22 08:36:18;;;;;;;;;;;12.90;99.90;;;;;;5128135;27;20270;-64
2023/07/22 08:38:45;;;;;;;;;;;12.90;99.90;;;;;;5116488;27;19918;-66
2023/07/22 08:41:16;;;;;;;;;;;12.90;99.90;;;;;;5108898;27;19930;-66
2023/07/22 08:43:45;;;;;;;;;;;12.80;99.90;;;;;;5113223;28;19930;-66
2023/07/22 08:46:12;;;;;;;;;;;12.80;99.90;;;;;;5126705;27;19918;-68
2023/07/22 08:48:41;;;;;;;;;;;12.70;99.90;;;;;;5134285;27;20002;-68
2023/07/22 08:51:13;;;;;;;;;;;12.70;99.90;;;;;;5111532;27;19920;-67
2023/07/22 08:53:39;;;;;;;;;;;12.70;99.90;;;;;;5114232;28;19935;-68
2023/07/22 08:56:06;;;;;;;;;;;12.70;99.90;;;;;;5112919;28;19919;-65
2023/07/22 08:58:34;;;;;;;;;;;12.60;99.90;;;;;;5112877;28;20439;-65
2023/07/22 09:01:00;;;;;;;;;;;12.60;99.90;;;;;;5106564;28;19912;-67
2023/07/22 09:03:28;;;;;;;;;;;12.50;99.90;;;;;;5113798;28;19932;-65
2023/07/22 09:05:55;;;;;;;;;;;12.50;99.90;;;;;;5113722;27;19923;-67
2023/07/22 09:08:21;;;;;;;;;;;12.50;99.90;;;;;;5093412;28;19919;-68
2023/07/22 09:10:48;;;;;;;;;;;12.40;99.90;;;;;;5100496;28;20053;-67
2023/07/22 09:13:15;;;;;;;;;;;12.30;99.90;;;;;;5113493;28;19919;-66
2023/07/22 09:15:42;;;;;;;;;;;12.30;99.90;;;;;;5113274;28;19930;-63
2023/07/22 09:18:09;;;;;;;;;;;12.20;99.90;;;;;;5113282;28;19908;-67
2023/07/22 09:20:36;;;;;;;;;;;12.20;99.90;;;;;;5112185;28;20018;-65
2023/07/22 09:23:02;;;;;;;;;;;12.10;99.90;;;;;;5112926;28;19943;-64
2023/07/22 09:25:29;;;;;;;;;;;12.10;99.90;;;;;;5102930;27;20276;-67
2023/07/22 09:27:58;;;;;;;;;;;12.00;99.90;;;;;;5112605;28;19960;-68
2023/07/22 09:30:26;;;;;;;;;;;12.00;99.90;;;;;;5105469;28;19955;-67
2023/07/22 09:32:57;;;;;;;;;;;12.00;99.90;;;;;;5112852;28;19954;-65
2023/07/22 09:35:25;;;;;;;;;;;11.90;99.90;;;;;;5112896;28;19987;-65
2023/07/22 09:37:53;;;;;;;;;;;11.80;99.90;;;;;;5112974;28;20268;-67
2023/07/22 09:40:20;;;;;;;;;;;11.80;99.90;;;;;;5104615;27;19914;-63
2023/07/22 09:42:47;;;;;;;;;;;11.70;99.90;;;;;;5104448;28;19971;-64
2023/07/22 09:45:14;;;;;;;;;;;11.70;99.90;;;;;;5112795;28;19915;-65
2023/07/22 09:47:42;;;;;;;;;;;11.70;99.90;;;;;;5112756;28;20411;-64
2023/07/22 09:50:11;;;;;;;;;;;11.60;99.90;;;;;;5112766;28;19915;-64
2023/07/22 09:52:47;;;;;;;;;;;11.60;99.90;;;;;;5102646;28;19920;-63
2023/07/22 09:55:33;;;;;;;;;;;11.60;99.90;;;;;;5093040;28;19912;-65
2023/07/22 09:58:05;;;;;;;;;;;11.50;99.90;;;;;;5094974;28;20135;-64
2023/07/22 10:00:33;;;;;;;;;;;11.50;99.90;;;;;;5094998;28;19912;-64
2023/07/22 10:03:01;;;;;;;;;;;11.40;99.90;;;;;;5092446;28;20261;-66
2023/07/22 10:05:30;;;;;;;;;;;11.40;99.90;;;;;;5094130;28;20392;-68
2023/07/22 10:07:58;;;;;;;;;;;11.40;99.90;;;;;;5112293;28;19908;-64
2023/07/22 10:10:34;;;;;;;;;;;11.40;99.90;;;;;;5102407;28;19962;-67
2023/07/22 10:13:01;;;;;;;;;;;11.30;99.90;;;;;;5107061;28;19947;-67
2023/07/22 10:15:35;;;;;;;;;;;11.30;99.90;;;;;;5112419;28;20412;-65
2023/07/22 10:18:03;;;;;;;;;;;11.30;99.90;;;;;;5112138;28;19915;-65
2023/07/22 10:20:30;;;;;;;;;;;11.30;99.90;;;;;;5101937;28;20661;-66
2023/07/22 10:22:56;;;;;;;;;;;11.30;99.90;;;;;;5086682;28;19912;-65
2023/07/22 10:25:24;;;;;;;;;;;11.30;99.90;;;;;;5110655;28;20360;-66
2023/07/22 10:27:52;;;;;;;;;;;11.20;99.90;;;;;;5112165;28;19908;-65
2023/07/22 10:30:18;;;;;;;;;;;11.10;99.90;;;;;;5101256;28;19919;-63
2023/07/22 10:32:49;;;;;;;;;;;11.10;99.90;;;;;;5111305;28;19915;-67
2023/07/22 10:35:30;;;;;;;;;;;11.10;99.90;;;;;;5103128;28;19920;-66
2023/07/22 10:38:17;;;;;;;;;;;11.10;99.90;;;;;;5091890;28;20362;-66
2023/07/22 10:40:48;;;;;;;;;;;11.00;99.90;;;;;;5093400;28;19935;-66
2023/07/22 10:43:18;;;;;;;;;;;11.00;99.90;;;;;;5111834;28;19931;-64
2023/07/22 10:45:54;;;;;;;;;;;11.00;99.90;;;;;;5112296;28;20491;-66
2023/07/22 10:48:26;;;;;;;;;;;10.90;99.90;;;;;;5091855;28;19912;-65
2023/07/22 10:50:53;;;;;;;;;;;10.90;99.90;;;;;;5096947;28;20291;-67
2023/07/22 10:53:20;;;;;;;;;;;10.90;99.90;;;;;;5132333;28;20352;-68
2023/07/22 10:56:07;;;;;;;;;;;10.90;99.90;;;;;;5132396;28;20052;-70
2023/07/22 10:58:54;;;;;;;;;;;10.80;99.90;;;;;;5132608;28;19908;-67
2023/07/22 11:01:29;;;;;;;;;;;10.80;99.90;;;;;;5100401;28;19923;-67
2023/07/22 11:04:10;;;;;;;;;;;10.70;99.90;;;;;;5111456;28;19908;-67
2023/07/22 11:06:48;;;;;;;;;;;10.70;99.90;;;;;;5110868;28;19911;-68
2023/07/22 11:09:27;;;;;;;;;;;10.70;99.90;;;;;;5110027;28;19911;-67
2023/07/22 11:11:56;;;;;;;;;;;10.70;99.90;;;;;;5102820;28;19919;-67
2023/07/22 11:14:24;;;;;;;;;;;10.60;99.90;;;;;;5111384;28;20427;-67
2023/07/22 11:16:51;;;;;;;;;;;10.60;99.90;;;;;;5111733;28;19912;-68
2023/07/22 11:19:18;;;;;;;;;;;10.50;99.90;;;;;;5109815;28;19912;-67
2023/07/22 11:21:46;;;;;;;;;;;10.50;99.90;;;;;;5101221;28;20006;-67
2023/07/22 11:24:12;;;;;;;;;;;10.40;99.90;;;;;;5114511;28;19912;-67
2023/07/22 11:26:40;;;;;;;;;;;10.40;99.90;;;;;;5115537;27;20000;-68
2023/07/22 11:29:07;;;;;;;;;;;10.40;99.90;;;;;;5115191;28;20360;-66
2023/07/22 11:31:42;;;;;;;;;;;10.30;99.90;;;;;;5102823;28;19970;-66
2023/07/22 11:34:09;;;;;;;;;;;10.40;99.90;;;;;;5110300;28;19919;-67
2023/07/22 11:36:36;;;;;;;;;;;10.30;99.90;;;;;;5100952;28;19911;-66
2023/07/22 11:39:06;;;;;;;;;;;10.40;99.90;;;;;;5088231;28;19919;-65
2023/07/22 11:41:33;;;;;;;;;;;10.40;99.90;;;;;;5103014;28;19918;-67
2023/07/22 11:44:00;;;;;;;;;;;10.30;99.90;;;;;;5108319;28;19923;-66
2023/07/22 11:46:27;;;;;;;;;;;10.30;99.90;;;;;;5112469;28;19911;-69
2023/07/22 11:48:54;;;;;;;;;;;10.30;99.90;;;;;;5108989;28;19912;-65
2023/07/22 11:51:22;;;;;;;;;;;10.30;99.90;;;;;;5108136;27;19919;-67
2023/07/22 11:53:52;;;;;;;;;;;10.30;99.90;;;;;;5112132;28;20376;-66
2023/07/22 11:56:23;;;;;;;;;;;10.30;99.90;;;;;;5112474;28;19999;-67
2023/07/22 11:58:51;;;;;;;;;;;10.30;99.90;;;;;;5114781;28;19907;-64
2023/07/22 12:01:18;;;;;;;;;;;10.30;99.90;;;;;;5112757;28;19915;-67
2023/07/22 12:03:44;;;;;;;;;;;10.30;99.90;;;;;;5113752;28;20272;-66
2023/07/22 12:06:11;;;;;;;;;;;10.30;99.90;;;;;;5114602;27;21105;-66
2023/07/22 12:08:48;;;;;;;;;;;10.20;99.90;;;;;;5113852;28;19915;-68
2023/07/22 12:11:33;;;;;;;;;;;10.20;99.90;;;;;;5111286;28;19930;-65
2023/07/22 12:14:13;;;;;;;;;;;10.10;99.90;;;;;;5110302;28;19971;-68
2023/07/22 12:16:40;;;;;;;;;;;10.20;99.90;;;;;;5112097;27;20360;-65
2023/07/22 12:19:10;;;;;;;;;;;10.20;99.90;;;;;;5114965;28;19912;-63
2023/07/22 12:21:36;;;;;;;;;;;10.20;99.90;;;;;;5112321;27;19965;-64
2023/07/22 12:24:04;;;;;;;;;;;10.20;99.90;;;;;;5105110;28;20010;-65
2023/07/22 12:26:30;;;;;;;;;;;10.20;99.90;;;;;;5114493;27;19911;-63
2023/07/22 12:28:57;;;;;;;;;;;10.10;99.90;;;;;;5114209;28;19912;-67
2023/07/22 12:31:24;;;;;;;;;;;10.10;99.90;;;;;;5114374;28;20288;-63
2023/07/22 12:33:50;;;;;;;;;;;10.10;99.90;;;;;;5102315;28;19912;-64
2023/07/22 12:36:17;;;;;;;;;;;10.00;99.90;;;;;;5093257;27;19912;-64
2023/07/22 12:38:44;;;;;;;;;;;10.10;99.90;;;;;;5099252;28;19923;-64
2023/07/22 12:41:10;;;;;;;;;;;10.10;99.90;;;;;;5098556;28;19912;-67
2023/07/22 12:43:37;;;;;;;;;;;10.10;99.90;;;;;;5113693;27;19920;-66
2023/07/22 12:46:03;;;;;;;;;;;10.10;99.90;;;;;;5113105;28;19911;-67
2023/07/22 12:48:30;;;;;;;;;;;10.10;99.90;;;;;;5097727;28;19922;-67
2023/07/22 12:50:57;;;;;;;;;;;10.20;99.90;;;;;;5093164;28;19948;-65
2023/07/22 12:53:24;;;;;;;;;;;10.20;99.90;;;;;;5092641;28;19908;-64
2023/07/22 12:55:51;;;;;;;;;;;10.10;99.90;;;;;;5093100;28;20330;-66
2023/07/22 12:58:17;;;;;;;;;;;10.10;99.90;;;;;;5103414;28;20003;-63
2023/07/22 13:00:44;;;;;;;;;;;10.00;99.90;;;;;;5093689;28;20315;-65
2023/07/22 13:03:11;;;;;;;;;;;10.00;99.90;;;;;;5101509;28;19912;-65
2023/07/22 13:05:37;;;;;;;;;;;10.00;99.90;;;;;;5113465;28;19911;-64
2023/07/22 13:08:04;;;;;;;;;;;10.10;99.90;;;;;;5094271;28;19912;-66
2023/07/22 13:10:33;;;;;;;;;;;10.00;99.90;;;;;;5093588;28;19908;-66
2023/07/22 13:12:59;;;;;;;;;;;10.10;99.90;;;;;;5095889;28;20369;-65
2023/07/22 13:15:26;;;;;;;;;;;10.00;99.90;;;;;;5113832;28;19915;-66
2023/07/22 13:17:53;;;;;;;;;;;10.00;99.90;;;;;;5110428;28;19912;-66
2023/07/22 13:20:19;;;;;;;;;;;9.90;99.90;;;;;;5093402;28;19908;-64
2023/07/22 13:22:46;;;;;;;;;;;9.90;99.90;;;;;;5093466;28;19915;-65
2023/07/22 13:25:13;;;;;;;;;;;9.90;99.90;;;;;;5093418;28;19930;-68
2023/07/22 13:27:40;;;;;;;;;;;9.90;99.90;;;;;;5093377;28;19908;-63
2023/07/22 13:30:07;;;;;;;;;;;9.90;99.90;;;;;;5094647;28;20365;-65
2023/07/22 13:32:34;;;;;;;;;;;9.90;99.90;;;;;;5113099;28;20296;-64
2023/07/22 13:35:00;;;;;;;;;;;9.80;99.90;;;;;;5113237;28;19912;-66
2023/07/22 13:37:27;;;;;;;;;;;9.80;99.90;;;;;;5113646;28;19908;-65
2023/07/22 13:39:55;;;;;;;;;;;9.80;99.90;;;;;;5113372;28;19908;-64
2023/07/22 13:42:21;;;;;;;;;;;9.60;99.90;;;;;;5113476;28;20276;-65
2023/07/22 13:44:48;;;;;;;;;;;9.60;99.90;;;;;;5113432;28;19911;-64
2023/07/22 13:47:15;;;;;;;;;;;9.60;99.90;;;;;;5111696;28;20314;-65
2023/07/22 13:49:41;;;;;;;;;;;9.50;99.90;;;;;;5093143;28;19908;-67
2023/07/22 13:52:08;;;;;;;;;;;9.60;99.90;;;;;;5092646;28;20395;-65
2023/07/22 13:54:34;;;;;;;;;;;9.60;99.90;;;;;;5092707;28;19970;-66
2023/07/22 13:57:01;;;;;;;;;;;9.50;99.90;;;;;;5092802;28;19993;-63
2023/07/22 13:59:28;;;;;;;;;;;9.40;99.90;;;;;;5092444;28;20007;-64
2023/07/22 14:01:54;;;;;;;;;;;9.40;99.90;;;;;;5108190;28;19961;-65
2023/07/22 14:04:21;;;;;;;;;;;9.40;99.90;;;;;;5112093;28;19973;-66
2023/07/22 14:06:47;;;;;;;;;;;9.40;99.90;;;;;;5112693;28;19959;-62
2023/07/22 14:09:14;;;;;;;;;;;9.40;99.90;;;;;;5105396;28;19919;-65
2023/07/22 14:11:41;;;;;;;;;;;9.40;99.90;;;;;;5105500;28;19920;-67
2023/07/22 14:14:07;;;;;;;;;;;9.30;99.90;;;;;;5112555;28;19907;-65
2023/07/22 14:16:34;;;;;;;;;;;9.30;99.90;;;;;;5112855;28;19907;-67
2023/07/22 14:19:00;;;;;;;;;;;9.30;99.90;;;;;;5112908;28;19908;-68
2023/07/22 14:21:27;;;;;;;;;;;9.30;99.90;;;;;;5113002;28;19907;-64